createdAt,value
2023-02-06T00:01:50.957Z,-4.60
2023-02-06T00:04:18.078Z,-4.70
2023-02-06T00:06:45.197Z,-4.80
2023-02-06T00:09:12.050Z,-4.80
2023-02-06T00:11:38.938Z,-4.80
2023-02-06T00:14:05.906Z,-4.90
2023-02-06T00:16:33.703Z,-4.90
2023-02-06T00:19:00.833Z,-4.90
2023-02-06T00:21:28.211Z,-4.90
2023-02-06T00:23:56.206Z,-5.00
2023-02-06T00:26:23.396Z,-5.00
2023-02-06T00:28:50.283Z,-5.00
2023-02-06T00:31:18.046Z,-5.10
2023-02-06T00:33:44.934Z,-5.10
2023-02-06T00:36:12.003Z,-5.10
2023-02-06T00:38:39.043Z,-5.10
2023-02-06T00:41:06.159Z,-5.10
2023-02-06T00:43:33.098Z,-5.10
2023-02-06T00:45:59.938Z,-5.10
2023-02-06T00:48:26.928Z,-5.10
2023-02-06T00:50:53.912Z,-5.20
2023-02-06T00:53:21.161Z,-5.20
2023-02-06T00:55:47.997Z,-5.30
2023-02-06T00:58:14.829Z,-5.30
2023-02-06T01:00:43.699Z,-5.30
2023-02-06T01:03:10.893Z,-5.30
2023-02-06T01:05:37.974Z,-5.40
2023-02-06T01:08:05.240Z,-5.40
2023-02-06T01:10:32.352Z,-5.40
2023-02-06T01:13:00.007Z,-5.50
2023-02-06T01:15:26.936Z,-5.50
2023-02-06T01:17:53.761Z,-5.50
2023-02-06T01:20:21.626Z,-5.50
2023-02-06T01:22:48.628Z,-5.50
2023-02-06T01:25:15.433Z,-5.60
2023-02-06T01:27:42.266Z,-5.50
2023-02-06T01:30:10.041Z,-5.60
2023-02-06T01:32:40.965Z,-5.60
2023-02-06T01:35:09.051Z,-5.60
2023-02-06T01:37:38.341Z,-5.60
2023-02-06T01:40:08.039Z,-5.60
2023-02-06T01:42:36.212Z,-5.70
2023-02-06T01:45:21.469Z,-5.70
2023-02-06T01:47:52.609Z,-5.80
2023-02-06T01:50:20.053Z,-5.80
2023-02-06T01:52:47.361Z,-5.80
2023-02-06T01:55:14.275Z,-5.90
2023-02-06T01:57:42.003Z,-5.90
2023-02-06T02:00:10.253Z,-5.80
2023-02-06T02:02:43.052Z,-5.90
2023-02-06T02:05:11.377Z,-5.90
2023-02-06T02:07:41.638Z,-5.90
2023-02-06T02:10:08.611Z,-5.90
2023-02-06T02:12:35.479Z,-5.90
2023-02-06T02:15:02.451Z,-6.00
2023-02-06T02:17:43.487Z,-6.10
2023-02-06T02:20:10.287Z,-6.10
2023-02-06T02:22:44.598Z,-6.00
2023-02-06T02:25:14.235Z,-6.00
2023-02-06T02:27:48.328Z,-6.00
2023-02-06T02:30:37.377Z,-6.10
2023-02-06T02:33:22.941Z,-6.10
2023-02-06T02:36:01.847Z,-6.20
2023-02-06T02:38:28.791Z,-6.10
2023-02-06T02:41:19.012Z,-6.20
2023-02-06T02:44:01.192Z,-6.20
2023-02-06T02:46:42.728Z,-6.20
2023-02-06T02:49:14.450Z,-6.20
2023-02-06T02:51:42.190Z,-6.20
2023-02-06T02:54:09.574Z,-6.30
2023-02-06T02:56:37.153Z,-6.30
2023-02-06T02:59:09.484Z,-6.30
2023-02-06T03:01:41.024Z,-6.40
2023-02-06T03:04:12.032Z,-6.40
2023-02-06T03:06:59.254Z,-6.40
2023-02-06T03:09:34.182Z,-6.40
2023-02-06T03:12:18.559Z,-6.40
2023-02-06T03:14:51.371Z,-6.40
2023-02-06T03:17:22.484Z,-6.40
2023-02-06T03:19:51.616Z,-6.40
2023-02-06T03:22:21.532Z,-6.40
2023-02-06T03:24:49.432Z,-6.50
2023-02-06T03:27:17.128Z,-6.50
2023-02-06T03:29:44.915Z,-6.50
2023-02-06T03:32:24.928Z,-6.60
2023-02-06T03:34:51.748Z,-6.60
2023-02-06T03:37:18.609Z,-6.60
2023-02-06T03:39:45.472Z,-6.60
2023-02-06T03:42:13.511Z,-6.60
2023-02-06T03:44:42.416Z,-6.60
2023-02-06T03:47:10.785Z,-6.70
2023-02-06T03:49:39.412Z,-6.70
2023-02-06T03:52:07.841Z,-6.70
2023-02-06T03:54:36.193Z,-6.70
2023-02-06T03:57:04.186Z,-6.80
2023-02-06T03:59:31.434Z,-6.80
2023-02-06T04:01:59.591Z,-6.80
2023-02-06T04:04:29.406Z,-6.80
2023-02-06T04:07:01.667Z,-6.80
2023-02-06T04:09:28.560Z,-6.80
2023-02-06T04:11:55.528Z,-6.80
2023-02-06T04:14:22.380Z,-6.80
2023-02-06T04:16:49.302Z,-6.80
2023-02-06T04:19:16.133Z,-6.80
2023-02-06T04:21:43.594Z,-6.80
2023-02-06T04:24:10.414Z,-6.80
2023-02-06T04:26:37.304Z,-6.80
2023-02-06T04:29:04.122Z,-6.90
2023-02-06T04:31:31.035Z,-6.90
2023-02-06T04:33:57.921Z,-6.90
2023-02-06T04:36:24.852Z,-6.90
2023-02-06T04:38:51.700Z,-6.90
2023-02-06T04:41:18.514Z,-6.90
2023-02-06T04:43:45.342Z,-6.90
2023-02-06T04:46:12.193Z,-6.90
2023-02-06T04:48:39.034Z,-6.90
2023-02-06T04:51:06.003Z,-6.90
2023-02-06T04:53:32.866Z,-6.90
2023-02-06T04:56:03.862Z,-7.00
2023-02-06T04:58:30.777Z,-6.90
2023-02-06T05:00:57.637Z,-6.90
2023-02-06T05:03:25.380Z,-6.80
2023-02-06T05:05:52.588Z,-6.80
2023-02-06T05:08:19.457Z,-6.90
2023-02-06T05:10:46.354Z,-6.90
2023-02-06T05:13:13.320Z,-6.80
2023-02-06T05:15:40.233Z,-6.70
2023-02-06T05:18:07.113Z,-6.80
2023-02-06T05:20:33.911Z,-6.80
2023-02-06T05:23:00.797Z,-6.80
2023-02-06T05:25:27.937Z,-6.80
2023-02-06T05:27:55.127Z,-6.80
2023-02-06T05:30:22.005Z,-6.80
2023-02-06T05:32:48.835Z,-6.80
2023-02-06T05:35:15.704Z,-6.70
2023-02-06T05:37:42.571Z,-6.70
2023-02-06T05:40:10.142Z,-6.70
2023-02-06T05:42:36.993Z,-6.70
2023-02-06T05:45:04.040Z,-6.80
2023-02-06T05:47:30.859Z,-6.70
2023-02-06T05:49:57.702Z,-6.70
2023-02-06T05:52:24.551Z,-6.60
2023-02-06T05:54:51.375Z,-6.60
2023-02-06T05:57:18.229Z,-6.60
2023-02-06T05:59:45.119Z,-6.60
2023-02-06T06:02:11.965Z,-6.60
2023-02-06T06:04:38.860Z,-6.60
2023-02-06T06:07:05.776Z,-6.60
2023-02-06T06:09:32.617Z,-6.70
2023-02-06T06:11:59.456Z,-6.70
2023-02-06T06:14:26.410Z,-6.70
2023-02-06T06:16:53.280Z,-6.70
2023-02-06T06:19:20.163Z,-6.70
2023-02-06T06:21:47.044Z,-6.70
2023-02-06T06:24:13.910Z,-6.70
2023-02-06T06:26:40.766Z,-6.70
2023-02-06T06:29:07.592Z,-6.60
2023-02-06T06:31:34.561Z,-6.60
2023-02-06T06:34:01.398Z,-6.60
2023-02-06T06:36:28.261Z,-6.70
2023-02-06T06:38:55.187Z,-6.70
2023-02-06T06:41:22.012Z,-6.70
2023-02-06T06:43:51.291Z,-6.70
2023-02-06T06:46:18.971Z,-6.70
2023-02-06T06:48:45.809Z,-6.60
2023-02-06T06:51:12.751Z,-6.60
2023-02-06T06:53:40.261Z,-6.60
2023-02-06T06:56:08.168Z,-6.50
2023-02-06T06:58:34.992Z,-6.50
2023-02-06T07:01:02.118Z,-6.40
2023-02-06T07:03:29.056Z,-6.40
2023-02-06T07:05:55.893Z,-6.40
2023-02-06T07:08:22.784Z,-6.30
2023-02-06T07:10:49.830Z,-6.20
2023-02-06T07:13:17.829Z,-6.20
2023-02-06T07:15:44.653Z,-6.20
2023-02-06T07:18:11.957Z,-6.10
2023-02-06T07:20:39.000Z,-6.10
2023-02-06T07:23:06.267Z,-6.00
2023-02-06T07:25:33.497Z,-5.90
2023-02-06T07:28:00.452Z,-5.90
2023-02-06T07:30:27.320Z,-5.70
2023-02-06T07:32:54.214Z,-5.60
2023-02-06T07:35:21.038Z,-5.10
2023-02-06T07:37:47.872Z,-4.50
2023-02-06T07:40:14.724Z,-4.00
2023-02-06T07:42:41.570Z,-3.10
2023-02-06T07:45:16.337Z,-2.50
2023-02-06T07:47:43.793Z,-2.30
2023-02-06T07:50:11.440Z,-2.60
2023-02-06T07:52:38.336Z,-2.80
2023-02-06T07:55:05.314Z,-3.00
2023-02-06T07:57:32.231Z,-3.00
2023-02-06T07:59:59.106Z,-3.10
2023-02-06T08:02:25.946Z,-3.20
2023-02-06T08:04:52.773Z,-3.20
2023-02-06T08:07:19.668Z,-3.20
2023-02-06T08:09:46.537Z,-3.20
2023-02-06T08:12:13.449Z,-3.10
2023-02-06T08:14:40.370Z,-3.00
2023-02-06T08:17:07.852Z,-2.90
2023-02-06T08:19:34.675Z,-2.80
2023-02-06T08:22:01.623Z,-2.50
2023-02-06T08:24:28.627Z,-2.30
2023-02-06T08:26:55.696Z,-2.20
2023-02-06T08:29:22.943Z,-2.00
2023-02-06T08:31:49.827Z,-1.80
2023-02-06T08:34:16.776Z,-1.50
2023-02-06T08:36:43.841Z,-1.30
2023-02-06T08:39:12.418Z,-1.10
2023-02-06T08:41:39.942Z,-0.90
2023-02-06T08:44:11.713Z,-1.20
2023-02-06T08:46:39.105Z,-1.30
2023-02-06T08:49:07.467Z,-0.90
2023-02-06T08:51:34.825Z,-0.40
2023-02-06T08:54:02.560Z,0.20
2023-02-06T08:56:30.084Z,0.40
2023-02-06T08:58:59.564Z,0.00
2023-02-06T09:01:27.120Z,0.00
2023-02-06T09:03:54.888Z,0.40
2023-02-06T09:06:21.736Z,0.10
2023-02-06T09:08:48.587Z,0.50
2023-02-06T09:11:16.401Z,0.80
2023-02-06T09:13:44.206Z,1.10
2023-02-06T09:16:11.861Z,1.30
2023-02-06T09:18:39.408Z,1.70
2023-02-06T09:21:22.423Z,2.00
2023-02-06T09:23:50.880Z,2.70
2023-02-06T09:26:19.192Z,3.20
2023-02-06T09:28:46.077Z,3.50
2023-02-06T09:31:13.084Z,3.80
2023-02-06T09:33:40.473Z,4.40
2023-02-06T09:36:08.679Z,5.50
2023-02-06T09:38:35.592Z,6.00
2023-02-06T09:41:04.940Z,6.30
2023-02-06T09:43:32.964Z,6.90
2023-02-06T09:46:01.532Z,7.20
2023-02-06T09:48:30.701Z,7.00
2023-02-06T09:51:09.562Z,7.30
2023-02-06T09:53:39.466Z,7.00
2023-02-06T09:56:26.528Z,6.70
2023-02-06T09:59:06.182Z,6.90
2023-02-06T10:01:42.933Z,5.00
2023-02-06T10:04:21.788Z,4.10
2023-02-06T10:06:51.687Z,3.70
2023-02-06T10:09:25.591Z,3.80
2023-02-06T10:11:52.505Z,4.50
2023-02-06T10:14:35.014Z,5.20
2023-02-06T10:17:04.727Z,6.10
2023-02-06T10:19:34.366Z,6.10
2023-02-06T10:22:03.310Z,6.80
2023-02-06T10:24:59.564Z,7.10
2023-02-06T10:27:26.722Z,6.50
2023-02-06T10:29:54.089Z,7.10
2023-02-06T10:32:21.142Z,7.60
2023-02-06T10:34:57.376Z,7.60
2023-02-06T10:37:47.699Z,7.60
2023-02-06T10:40:28.322Z,7.20
2023-02-06T10:42:58.117Z,5.90
2023-02-06T10:45:43.730Z,5.50
2023-02-06T10:48:20.501Z,5.30
2023-02-06T10:51:16.451Z,4.70
2023-02-06T10:53:50.665Z,4.30
2023-02-06T10:56:20.318Z,4.50
2023-02-06T10:58:52.254Z,4.60
2023-02-06T11:01:26.440Z,4.50
2023-02-06T11:03:56.600Z,4.50
2023-02-06T11:06:25.917Z,4.00
2023-02-06T11:08:52.826Z,3.80
2023-02-06T11:11:24.779Z,4.30
2023-02-06T11:13:54.230Z,3.90
2023-02-06T11:16:23.779Z,3.60
2023-02-06T11:18:51.291Z,3.40
2023-02-06T11:21:38.027Z,3.90
2023-02-06T11:24:12.486Z,4.10
2023-02-06T11:27:11.792Z,3.90
2023-02-06T11:29:43.810Z,4.00
2023-02-06T11:32:25.013Z,3.90
2023-02-06T11:34:54.630Z,3.50
2023-02-06T11:37:38.148Z,3.40
2023-02-06T11:40:14.124Z,4.00
2023-02-06T11:42:41.037Z,4.20
2023-02-06T11:45:25.237Z,3.60
2023-02-06T11:47:52.151Z,3.30
2023-02-06T11:50:34.626Z,3.50
2023-02-06T11:53:18.393Z,3.20
2023-02-06T11:55:46.746Z,3.50
2023-02-06T11:58:13.592Z,3.20
2023-02-06T12:00:41.539Z,2.40
2023-02-06T12:03:26.690Z,2.30
2023-02-06T12:05:53.689Z,1.90
2023-02-06T12:08:21.839Z,1.90
2023-02-06T12:10:54.353Z,1.70
2023-02-06T12:13:23.773Z,1.60
2023-02-06T12:15:53.631Z,1.50
2023-02-06T12:18:22.740Z,1.50
2023-02-06T12:20:54.440Z,1.40
2023-02-06T12:23:24.258Z,1.50
2023-02-06T12:25:53.947Z,1.60
2023-02-06T12:28:23.572Z,1.80
2023-02-06T12:30:59.360Z,1.60
2023-02-06T12:33:36.215Z,1.60
2023-02-06T12:36:07.451Z,1.60
2023-02-06T12:38:43.760Z,1.60
2023-02-06T12:41:26.477Z,1.50
2023-02-06T12:44:01.231Z,1.50
2023-02-06T12:46:28.844Z,1.50
2023-02-06T12:48:56.394Z,1.20
2023-02-06T12:51:53.085Z,1.20
2023-02-06T12:54:25.543Z,1.00
2023-02-06T12:56:55.887Z,0.80
2023-02-06T12:59:57.074Z,0.60
2023-02-06T13:02:26.198Z,0.70
2023-02-06T13:04:54.360Z,0.50
2023-02-06T13:07:23.754Z,0.50
2023-02-06T13:09:52.796Z,0.60
2023-02-06T13:12:21.963Z,0.80
2023-02-06T13:14:50.916Z,0.90
2023-02-06T13:17:19.938Z,0.70
2023-02-06T13:19:47.247Z,0.80
2023-02-06T13:22:15.839Z,0.70
2023-02-06T13:24:47.285Z,0.60
2023-02-06T13:27:37.948Z,0.50
2023-02-06T13:30:23.935Z,0.50
2023-02-06T13:32:51.397Z,0.30
2023-02-06T13:35:21.634Z,0.40
2023-02-06T13:37:50.234Z,0.40
2023-02-06T13:40:23.814Z,0.30
2023-02-06T13:42:52.762Z,0.30
2023-02-06T13:45:22.929Z,0.20
2023-02-06T13:47:56.449Z,0.10
2023-02-06T13:50:36.385Z,0.30
2023-02-06T13:53:22.531Z,0.40
2023-02-06T13:55:58.993Z,0.30
2023-02-06T13:58:34.270Z,0.30
2023-02-06T14:01:02.647Z,0.20
2023-02-06T14:03:31.423Z,0.30
2023-02-06T14:06:04.823Z,0.40
2023-02-06T14:08:44.958Z,0.30
2023-02-06T14:11:43.219Z,0.30
2023-02-06T14:14:19.642Z,0.10
2023-02-06T14:16:55.278Z,0.10
2023-02-06T14:19:22.486Z,0.30
2023-02-06T14:21:55.656Z,0.20
2023-02-06T14:24:41.666Z,0.00
2023-02-06T14:27:11.984Z,0.10
2023-02-06T14:29:46.414Z,0.10
2023-02-06T14:32:22.787Z,0.10
2023-02-06T14:35:00.675Z,0.00
2023-02-06T14:37:41.247Z,0.10
2023-02-06T14:40:14.376Z,0.10
2023-02-06T14:42:43.390Z,0.10
2023-02-06T14:45:35.943Z,0.10
2023-02-06T14:48:04.839Z,0.20
2023-02-06T14:50:36.262Z,0.10
2023-02-06T14:53:22.403Z,0.20
2023-02-06T14:55:50.707Z,0.30
2023-02-06T14:58:19.821Z,0.30
2023-02-06T15:00:47.195Z,0.30
2023-02-06T15:03:15.657Z,0.30
2023-02-06T15:05:43.094Z,0.20
2023-02-06T15:08:20.481Z,0.10
2023-02-06T15:10:47.620Z,0.10
2023-02-06T15:13:22.781Z,0.20
2023-02-06T15:15:54.816Z,0.20
2023-02-06T15:18:22.339Z,0.20
2023-02-06T15:20:57.207Z,0.20
2023-02-06T15:23:43.415Z,0.30
2023-02-06T15:26:26.354Z,0.20
2023-02-06T15:28:58.458Z,0.20
2023-02-06T15:31:26.138Z,0.10
2023-02-06T15:33:54.384Z,0.00
2023-02-06T15:36:30.214Z,0.00
2023-02-06T15:38:58.419Z,0.00
2023-02-06T15:41:26.945Z,-0.10
2023-02-06T15:43:58.826Z,0.00
2023-02-06T15:46:26.821Z,0.00
2023-02-06T15:48:54.635Z,-0.10
2023-02-06T15:51:29.479Z,-0.10
2023-02-06T15:54:17.842Z,-0.20
2023-02-06T15:56:48.371Z,-0.10
2023-02-06T15:59:20.614Z,-0.10
2023-02-06T16:01:48.373Z,-0.20
2023-02-06T16:04:35.336Z,-0.20
2023-02-06T16:07:05.976Z,-0.20
2023-02-06T16:09:46.886Z,-0.20
2023-02-06T16:12:16.656Z,-0.20
2023-02-06T16:14:54.637Z,-0.30
2023-02-06T16:17:23.811Z,-0.30
2023-02-06T16:19:56.598Z,-0.30
2023-02-06T16:22:28.516Z,-0.30
2023-02-06T16:25:12.162Z,-0.30
2023-02-06T16:27:42.430Z,-0.40
2023-02-06T16:30:28.677Z,-0.30
2023-02-06T16:32:56.891Z,-0.40
2023-02-06T16:35:24.808Z,-0.40
2023-02-06T16:37:53.249Z,-0.40
2023-02-06T16:40:20.992Z,-0.50
2023-02-06T16:42:48.334Z,-0.50
2023-02-06T16:45:20.683Z,-0.60
2023-02-06T16:47:48.230Z,-0.60
2023-02-06T16:50:15.975Z,-0.70
2023-02-06T16:52:47.986Z,-0.80
2023-02-06T16:55:17.195Z,-0.70
2023-02-06T16:57:45.766Z,-0.80
2023-02-06T17:00:23.449Z,-0.80
2023-02-06T17:02:52.203Z,-0.80
2023-02-06T17:05:20.614Z,-0.80
2023-02-06T17:07:50.898Z,-0.90
2023-02-06T17:10:19.981Z,-1.00
2023-02-06T17:12:47.778Z,-1.00
2023-02-06T17:15:16.466Z,-1.00
2023-02-06T17:17:43.871Z,-1.10
2023-02-06T17:20:32.074Z,-1.20
2023-02-06T17:22:59.550Z,-1.30
2023-02-06T17:25:26.849Z,-1.30
2023-02-06T17:27:54.003Z,-1.40
2023-02-06T17:30:22.151Z,-1.40
2023-02-06T17:32:49.937Z,-1.40
2023-02-06T17:35:17.897Z,-1.30
2023-02-06T17:37:45.654Z,-1.40
2023-02-06T17:40:18.190Z,-1.40
2023-02-06T17:42:45.662Z,-1.50
2023-02-06T17:45:13.302Z,-1.60
2023-02-06T17:47:42.168Z,-1.60
2023-02-06T17:50:10.491Z,-1.60
2023-02-06T17:52:38.379Z,-1.70
2023-02-06T17:55:05.839Z,-1.70
2023-02-06T17:57:35.125Z,-1.80
2023-02-06T18:00:03.050Z,-1.80
2023-02-06T18:02:32.399Z,-1.90
2023-02-06T18:05:00.175Z,-1.90
2023-02-06T18:07:27.946Z,-1.90
2023-02-06T18:09:55.478Z,-2.00
2023-02-06T18:12:23.100Z,-2.10
2023-02-06T18:14:50.321Z,-2.10
2023-02-06T18:17:18.675Z,-2.10
2023-02-06T18:19:48.862Z,-2.20
2023-02-06T18:22:22.156Z,-2.20
2023-02-06T18:24:51.331Z,-2.20
2023-02-06T18:27:19.747Z,-2.30
2023-02-06T18:29:50.577Z,-2.30
2023-02-06T18:32:19.177Z,-2.40
2023-02-06T18:34:48.306Z,-2.40
2023-02-06T18:37:16.038Z,-2.40
2023-02-06T18:39:45.156Z,-2.50
2023-02-06T18:42:31.062Z,-2.50
2023-02-06T18:44:58.899Z,-2.60
2023-02-06T18:47:28.336Z,-2.60
2023-02-06T18:49:55.833Z,-2.70
2023-02-06T18:52:24.077Z,-2.70
2023-02-06T18:54:52.251Z,-2.70
2023-02-06T18:57:19.792Z,-2.80
2023-02-06T18:59:47.649Z,-2.80
2023-02-06T19:02:15.394Z,-2.80
2023-02-06T19:04:43.172Z,-2.90
2023-02-06T19:07:12.406Z,-3.00
2023-02-06T19:09:40.378Z,-3.10
2023-02-06T19:12:08.886Z,-3.10
2023-02-06T19:14:37.521Z,-3.10
2023-02-06T19:17:05.769Z,-3.00
2023-02-06T19:19:33.757Z,-3.10
2023-02-06T19:22:02.283Z,-3.20
2023-02-06T19:24:31.960Z,-3.20
2023-02-06T19:27:01.235Z,-3.20
2023-02-06T19:29:35.560Z,-3.20
2023-02-06T19:32:05.773Z,-3.20
2023-02-06T19:34:36.578Z,-3.30
2023-02-06T19:37:05.146Z,-3.30
2023-02-06T19:39:34.439Z,-3.40
2023-02-06T19:42:06.583Z,-3.50
2023-02-06T19:44:36.282Z,-3.50
2023-02-06T19:47:05.615Z,-3.60
2023-02-06T19:49:33.591Z,-3.50
2023-02-06T19:52:03.691Z,-3.60
2023-02-06T19:54:31.969Z,-3.70
2023-02-06T19:57:01.140Z,-3.70
2023-02-06T19:59:29.506Z,-3.70
2023-02-06T20:01:58.313Z,-3.70
2023-02-06T20:04:32.653Z,-3.70
2023-02-06T20:07:02.462Z,-3.80
2023-02-06T20:09:30.937Z,-3.90
2023-02-06T20:11:59.076Z,-3.90
2023-02-06T20:14:29.138Z,-3.90
2023-02-06T20:16:57.480Z,-4.00
2023-02-06T20:19:43.662Z,-4.00
2023-02-06T20:22:11.475Z,-4.10
2023-02-06T20:24:39.506Z,-4.10
2023-02-06T20:27:09.134Z,-4.20
2023-02-06T20:29:39.541Z,-4.20
2023-02-06T20:32:07.969Z,-4.20
2023-02-06T20:34:38.552Z,-4.30
2023-02-06T20:37:09.479Z,-4.30
2023-02-06T20:39:37.604Z,-4.40
2023-02-06T20:42:05.882Z,-4.40
2023-02-06T20:44:36.776Z,-4.40
2023-02-06T20:47:04.698Z,-4.50
2023-02-06T20:49:32.108Z,-4.50
2023-02-06T20:51:59.701Z,-4.60
2023-02-06T20:54:29.396Z,-4.60
2023-02-06T20:57:00.757Z,-4.60
2023-02-06T20:59:28.129Z,-4.70
2023-02-06T21:01:55.700Z,-4.70
2023-02-06T21:04:25.736Z,-4.70
2023-02-06T21:06:53.876Z,-4.70
2023-02-06T21:09:21.361Z,-4.70
2023-02-06T21:11:50.412Z,-4.80
2023-02-06T21:14:18.345Z,-4.80
2023-02-06T21:16:45.894Z,-4.90
2023-02-06T21:19:14.437Z,-4.90
2023-02-06T21:21:42.786Z,-5.00
2023-02-06T21:24:10.727Z,-5.00
2023-02-06T21:26:38.337Z,-5.00
2023-02-06T21:29:07.815Z,-5.10
2023-02-06T21:31:38.323Z,-5.10
2023-02-06T21:34:09.152Z,-5.10
2023-02-06T21:36:37.369Z,-5.10
2023-02-06T21:39:05.240Z,-5.10
2023-02-06T21:41:32.483Z,-5.20
2023-02-06T21:43:59.526Z,-5.20
2023-02-06T21:46:26.746Z,-5.20
2023-02-06T21:48:54.182Z,-5.30
2023-02-06T21:51:21.722Z,-5.30
2023-02-06T21:53:48.959Z,-5.30
2023-02-06T21:56:22.905Z,-5.40
2023-02-06T21:58:50.602Z,-5.50
2023-02-06T22:01:21.135Z,-5.50
2023-02-06T22:03:48.509Z,-5.50
2023-02-06T22:06:15.588Z,-5.50
2023-02-06T22:08:44.345Z,-5.60
2023-02-06T22:11:15.594Z,-5.60
2023-02-06T22:13:43.282Z,-5.70
2023-02-06T22:16:11.218Z,-5.60
2023-02-06T22:18:38.531Z,-5.70
2023-02-06T22:21:06.820Z,-5.70
2023-02-06T22:23:34.849Z,-5.70
2023-02-06T22:26:01.920Z,-5.80
2023-02-06T22:28:29.067Z,-5.80
2023-02-06T22:31:03.719Z,-5.90
2023-02-06T22:33:30.992Z,-5.90
2023-02-06T22:35:58.094Z,-5.90
2023-02-06T22:38:25.107Z,-5.90
2023-02-06T22:41:02.521Z,-5.90
2023-02-06T22:43:30.306Z,-6.00
2023-02-06T22:45:57.345Z,-6.00
2023-02-06T22:48:24.952Z,-6.00
2023-02-06T22:50:53.582Z,-6.00
2023-02-06T22:53:30.176Z,-6.10
2023-02-06T22:56:24.139Z,-6.10
2023-02-06T22:58:51.538Z,-6.20
2023-02-06T23:01:19.480Z,-6.20
2023-02-06T23:03:46.910Z,-6.10
2023-02-06T23:06:15.052Z,-6.20
2023-02-06T23:08:42.740Z,-6.20
2023-02-06T23:11:10.760Z,-6.30
2023-02-06T23:13:38.440Z,-6.30
2023-02-06T23:16:05.781Z,-6.30
2023-02-06T23:18:34.135Z,-6.30
2023-02-06T23:21:06.465Z,-6.30
2023-02-06T23:23:33.751Z,-6.40
2023-02-06T23:26:00.826Z,-6.40
2023-02-06T23:28:28.109Z,-6.40
2023-02-06T23:30:55.304Z,-6.40
2023-02-06T23:33:22.358Z,-6.50
2023-02-06T23:35:49.756Z,-6.50
2023-02-06T23:38:18.174Z,-6.50
2023-02-06T23:40:45.445Z,-6.50
2023-02-06T23:43:12.626Z,-6.50
2023-02-06T23:45:40.685Z,-6.60
2023-02-06T23:48:08.223Z,-6.60
2023-02-06T23:50:35.938Z,-6.60
2023-02-06T23:53:03.027Z,-6.60
2023-02-06T23:55:30.779Z,-6.60
2023-02-06T23:57:57.913Z,-6.60
